Nearby METAR Reports

 

EGVO - Odiham Raf, United Kingdom
Distance from station: ESE 6mi, 10km
Updated: Sun, 24-Sep-2017 17:50 BST
Partly Cloudy
Partly Cloudy
 Wind from SE
Wind: SE 9 mph , 15 km/h
Temperature: 63°F , 17°C
Dew Point: 55°F , 13°C
Humidity: 77%
Barometer: 30.06 inHg , 1018 hPa
Clouds: Partly Cloudy
Visibility: 6 miles , 10 km
Cloud details: Mostly Cloudy 7000 ft
Partly Cloudy 12000 ft
2017/09/24 16:50 EGVO 241650Z AUTO 14008KT 9999 BKN070/// SCT120/// 17/13 Q1018
EGLF - Farnborough, United Kingdom
Distance from station: E 14mi, 22km
Updated: Sun, 24-Sep-2017 17:50 BST
Clear
Clear
 Wind from SSE
Wind: SSE 8 mph , 13 km/h
Temperature: 64°F , 18°C
Dew Point: 55°F , 13°C
Humidity: 73%
Barometer: 30.06 inHg , 1018 hPa
Summary: Clear
Visibility: greater than 7 miles , 10 km
2017/09/24 16:50 EGLF 241650Z 15007KT CAVOK 18/13 Q1018
 
EGVP - Middle Wallop, United Kingdom
Distance from station: WSW 23mi, 36km
Updated: Sun, 24-Sep-2017 17:50 BST
Partly Cloudy
Partly Cloudy
 Wind from SSE
Wind: SSE 12 mph , 19 km/h
Temperature: 63°F , 17°C
Dew Point: 57°F , 14°C
Humidity: 83%
Barometer: 30.06 inHg , 1018 hPa
Clouds: Partly Cloudy
Visibility: 6 miles , 10 km
Cloud details: Partly Cloudy 1400 ft
Partly Cloudy 2100 ft
2017/09/24 16:50 EGVP 241650Z AUTO 15010KT 9999 // SCT014/// SCT021/// 17/14 Q1018
EGHI - Southampton Wx C, United Kingdom
Distance from station: SSW 24mi, 39km
Updated: Sun, 24-Sep-2017 17:50 BST
Nearby showers, Partly cloudy
Nearby showers, Partly cloudy
 Wind from S
Wind: S 5 mph , 7 km/h
Temperature: 63°F , 17°C
Dew Point: 57°F , 14°C
Humidity: 83%
Barometer: 30.06 inHg , 1018 hPa
Summary: Nearby Showers
Clouds: Partly Cloudy
Visibility: 6 miles , 10 km
Cloud details: Few Clouds 1600 ft
Partly Cloudy 2300 ft
2017/09/24 16:50 EGHI 241650Z 17004KT 120V210 9999 VCSH FEW016 SCT023 17/14 Q1018
 
EGUB - Benson Raf, United Kingdom
Distance from station: N 24mi, 39km
Updated: Sun, 24-Sep-2017 17:50 BST
Partly Cloudy
Partly Cloudy
 Wind from SE
Wind: SE 8 mph , 13 km/h
Temperature: 66°F , 19°C
Dew Point: 54°F , 12°C
Humidity: 64%
Barometer: 30.03 inHg , 1017 hPa
Clouds: Partly Cloudy
Visibility: 6 miles , 10 km
Cloud details: Few Clouds 4800 ft
Partly Cloudy 11000 ft
2017/09/24 16:50 EGUB 241650Z AUTO 14007KT 9999 // FEW048/// SCT110/// 19/12 Q1017
EGDM - Boscombe Down, United Kingdom
Distance from station: WSW 29mi, 47km
Updated: Sun, 24-Sep-2017 17:50 BST
Mostly Cloudy
Mostly Cloudy
 Wind from SSE
Wind: SSE 13 mph , 20 km/h
Temperature: 63°F , 17°C
Dew Point: 55°F , 13°C
Humidity: 77%
Barometer: 30.06 inHg , 1018 hPa
Clouds: Mostly Cloudy
Visibility: 6 miles , 10 km
Cloud details: Partly Cloudy 2400 ft
Mostly Cloudy 6000 ft
2017/09/24 16:50 EGDM 241650Z AUTO 15011KT 9999 SCT024/// BKN060/// 17/13 Q1018 RERA
 
EGLL - London/Heathrow, United Kingdom
Distance from station: ENE 31mi, 51km
Updated: Sun, 24-Sep-2017 17:50 BST
Clear
Clear
 Wind from SE
Wind: SE 9 mph , 15 km/h
Temperature: 66°F , 19°C
Dew Point: 50°F , 10°C
Humidity: 56%
Barometer: 30.06 inHg , 1018 hPa
Clouds: Clear
Visibility: 6 miles , 10 km
2017/09/24 16:50 EGLL 241650Z AUTO 13008KT 9999 NCD 19/10 Q1018 NOSIG
EGWU - Northolt Raf, United Kingdom
Distance from station: NE 35mi, 56km
Updated: Sun, 24-Sep-2017 17:50 BST
Clear
Clear
 Wind from SE
Wind: SE 8 mph , 13 km/h
Temperature: 66°F , 19°C
Dew Point: 50°F , 10°C
Humidity: 56%
Barometer: 30.06 inHg , 1018 hPa
Summary: Clear
Visibility: greater than 7 miles , 10 km
2017/09/24 16:50 EGWU 241650Z 14007KT CAVOK 19/10 Q1018 BLU NOSIG
 
EGVA - Fairford Raf, United Kingdom
Distance from station: NW 40mi, 65km
Updated: Sun, 24-Sep-2017 18:06 BST
Light rain, Overcast
Light rain, Overcast
 Wind from SW
Wind: SW 7 mph , 11 km/h
Temperature: 63°F , 17°C
Dew Point: 59°F , 15°C
Humidity: 88%
Barometer: 30.05 inHg , 1017.6 hPa
Summary: Light Rain
Clouds: Overcast
Visibility: 6 miles , 10 km
Cloud details: Partly Cloudy 3800 ft
Mostly Cloudy 4900 ft
Overcast 7000 ft
2017/09/24 17:06 EGVA 241706Z AUTO 23006KT 9999 -RA SCT038 BKN049 OVC070 17/15 A3005 RMK AO2 SLP179 $
EGKK - London/Gatwick A, United Kingdom
Distance from station: ESE 41mi, 66km
Updated: Sun, 24-Sep-2017 17:50 BST
Clear
Clear
 Wind from SE
Wind: SE 3 mph , 6 km/h
Temperature: 64°F , 18°C
Dew Point: 54°F , 12°C
Humidity: 68%
Barometer: 30.06 inHg , 1018 hPa
Summary: Clear
Visibility: greater than 7 miles , 10 km
2017/09/24 16:50 EGKK 241650Z 13003KT CAVOK 18/12 Q1018
 
EGVN - Brize Norton Raf, United Kingdom
Distance from station: NNW 41mi, 66km
Updated: Sun, 24-Sep-2017 17:50 BST
Mostly Cloudy
Mostly Cloudy
 Wind from SSE
Wind: SSE 7 mph , 11 km/h
Temperature: 66°F , 19°C
Dew Point: 54°F , 12°C
Humidity: 64%
Barometer: 30.03 inHg , 1017 hPa
Clouds: Mostly Cloudy
Visibility: 6 miles , 10 km
Cloud details: Partly Cloudy 3000 ft
Mostly Cloudy 4500 ft
2017/09/24 16:50 EGVN 241650Z 15006KT 9999 SCT030 BKN045 19/12 Q1017 BLU TEMPO 7000 SHRA WHT
EGKA - Shoreham-By-Sea, United Kingdom
Distance from station: SE 45mi, 73km
Updated: Sun, 24-Sep-2017 17:50 BST
Clear
Clear
 Wind from ESE
Wind: ESE 13 mph , 20 km/h
Temperature: 64°F , 18°C
Dew Point: 55°F , 13°C
Humidity: 73%
Barometer: 30.06 inHg , 1018 hPa
Summary: Clear
Visibility: greater than 7 miles , 10 km
2017/09/24 16:50 EGKA 241650Z 11011KT CAVOK 18/13 Q1018
 
EGHH - Bournemouth Airp, United Kingdom
Distance from station: SW 46mi, 75km
Updated: Sun, 24-Sep-2017 17:50 BST
Mostly Cloudy
Mostly Cloudy
 Wind from S
Wind: S 6 mph , 9 km/h
Temperature: 63°F , 17°C
Dew Point: 57°F , 14°C
Humidity: 83%
Barometer: 30.06 inHg , 1018 hPa
Clouds: Mostly Cloudy
Visibility: 6 miles , 10 km
Cloud details: Partly Cloudy 1300 ft
Mostly Cloudy 2400 ft
2017/09/24 16:50 EGHH 241650Z 17005KT 130V200 9999 SCT013 BKN024 17/14 Q1018
EGKB - Biggin Hill, United Kingdom
Distance from station: E 48mi, 77km
Updated: Sun, 24-Sep-2017 17:50 BST
Light drizzle, Few clouds
Light drizzle, Few clouds
 Wind from SSE
Wind: SSE 8 mph , 13 km/h
Temperature: 63°F , 17°C
Dew Point: 52°F , 11°C
Humidity: 68%
Barometer: 30.09 inHg , 1019 hPa
Summary: Light Drizzle
Clouds: Few Clouds
Visibility: 6 miles , 10 km
Cloud details: Few Clouds 3500 ft
2017/09/24 16:50 EGKB 241650Z 15007KT 9999 -DZ FEW035 17/11 Q1019

Metar display script from Saratoga-Weather.org